| time (UTC) | temp C | wind direction | speed KPH | gust KPH | rain 1hr cm | rain 24hr cm | rain mn cm | humidity % | barometer mb |
| 20260906112703 | 20 | 0 | 0.0 | 0.0 | 0.00 | 0.38 | 0.00 | 99 | 1016.0 |
| 20260906111803 | 20 | 0 | 0.0 | 0.0 | 0.00 | 0.38 | 0.00 | 99 | 1015.9 |
| 20260906110903 | 20 | 0 | 0.0 | 0.0 | 0.00 | 0.38 | 0.00 | 99 | 1015.9 |
| 20260906110003 | 20 | 0 | 0.0 | 0.0 | 0.00 | 0.38 | 0.00 | 98 | 1016.1 |
| 20260906105403 | 20 | 0 | 0.0 | 0.0 | 0.00 | 0.38 | 0.00 | 98 | 1016.1 |
| 20260906104503 | 20 | 0 | 0.0 | 0.0 | 0.00 | 0.38 | 0.00 | 98 | 1016.1 |
| 20260906103603 | 20 | 0 | 0.0 | 0.0 | 0.00 | 0.38 | 0.00 | 99 | 1016.0 |
| 20260906102703 | 20 | 0 | 0.0 | 0.0 | 0.00 | 0.38 | 0.00 | 98 | 1015.9 |
| 20260906101803 | 20 | 0 | 0.0 | 0.0 | 0.00 | 0.38 | 0.00 | 98 | 1015.8 |
| 20260906100904 | 20 | 0 | 0.0 | 0.0 | 0.00 | 0.38 | 0.00 | 98 | 1015.7 |
| 20260906100003 | 21 | 0 | 0.0 | 0.0 | 0.00 | 0.38 | 0.00 | 98 | 1015.6 |
| 20260906095403 | 21 | 0 | 0.0 | 0.0 | 0.00 | 0.38 | 0.00 | 98 | 1015.5 |
| 20260906094503 | 21 | 0 | 0.0 | 0.0 | 0.00 | 0.38 | 0.00 | 98 | 1015.5 |
| 20260906093603 | 21 | 0 | 0.0 | 0.0 | 0.00 | 0.38 | 0.00 | 98 | 1015.5 |
| 20260906092703 | 21 | 0 | 0.0 | 0.0 | 0.00 | 0.38 | 0.00 | 98 | 1015.5 |
| 20260906091803 | 21 | 0 | 0.0 | 0.0 | 0.00 | 0.38 | 0.00 | 98 | 1015.4 |
| 20260906090903 | 21 | 0 | 0.0 | 0.0 | 0.00 | 0.38 | 0.00 | 98 | 1015.4 |
| 20260906090003 | 21 | 0 | 0.0 | 0.0 | 0.00 | 0.38 | 0.00 | 98 | 1015.4 |
| 20260906085403 | 21 | 0 | 0.0 | 0.0 | 0.00 | 0.38 | 0.00 | 98 | 1015.4 |
| 20260906084503 | 21 | 0 | 0.0 | 0.0 | 0.00 | 0.38 | 0.00 | 98 | 1015.5 |
| 20260906083603 | 21 | 0 | 0.0 | 0.0 | 0.00 | 0.38 | 0.00 | 97 | 1015.5 |
| 20260906082703 | 21 | 0 | 0.0 | 0.0 | 0.00 | 0.38 | 0.00 | 97 | 1015.4 |
| 20260906081803 | 21 | 0 | 0.0 | 0.0 | 0.00 | 0.38 | 0.00 | 98 | 1015.2 |
| 20260906080903 | 21 | 0 | 0.0 | 0.0 | 0.00 | 0.38 | 0.00 | 98 | 1015.3 |
| 20260906080003 | 21 | 0 | 0.0 | 0.0 | 0.00 | 0.38 | 0.00 | 98 | 1015.2 |
| 20260906075403 | 21 | 0 | 0.0 | 0.0 | 0.00 | 0.38 | 0.00 | 98 | 1015.2 |
| 20260906074503 | 21 | 0 | 0.0 | 0.0 | 0.00 | 0.38 | 0.00 | 98 | 1015.2 |
| 20260906073603 | 21 | 0 | 0.0 | 0.0 | 0.00 | 0.38 | 0.00 | 98 | 1015.1 |
| 20260906072703 | 21 | 0 | 0.0 | 0.0 | 0.00 | 0.38 | 0.00 | 98 | 1015.0 |
| 20260906071803 | 22 | 0 | 0.0 | 0.0 | 0.00 | 0.38 | 0.00 | 98 | 1014.9 |
| 20260906070903 | 22 | 0 | 0.0 | 0.0 | 0.00 | 0.38 | 0.00 | 97 | 1014.9 |
| 20260906070003 | 22 | 0 | 0.0 | 0.0 | 0.00 | 0.38 | 0.00 | 97 | 1014.8 |
| 20260906065403 | 22 | 0 | 0.0 | 0.0 | 0.00 | 0.38 | 0.00 | 97 | 1014.9 |
| 20260906064503 | 22 | 0 | 0.0 | 0.0 | 0.00 | 0.38 | 0.00 | 97 | 1014.9 |
| 20260906063603 | 22 | 0 | 0.0 | 0.0 | 0.00 | 0.38 | 0.00 | 97 | 1015.0 |
| 20260906062703 | 22 | 0 | 0.0 | 0.0 | 0.00 | 0.38 | 0.00 | 97 | 1015.0 |
| 20260906061803 | 22 | 0 | 0.0 | 0.0 | 0.00 | 0.38 | 0.00 | 97 | 1015.1 |
| 20260906060903 | 22 | 0 | 0.0 | 0.0 | 0.00 | 0.38 | 0.00 | 97 | 1015.2 |
| 20260906060003 | 22 | 0 | 0.0 | 0.0 | 0.00 | 0.38 | 0.00 | 97 | 1015.1 |
| 20260906055403 | 22 | 0 | 0.0 | 0.0 | 0.00 | 0.38 | 0.00 | 97 | 1015.0 |
| 20260906054503 | 22 | 0 | 0.0 | 0.0 | 0.00 | 0.38 | 0.00 | 96 | 1015.1 |
| 20260906053603 | 22 | 0 | 0.0 | 0.0 | 0.00 | 0.38 | 0.00 | 96 | 1015.0 |
| 20260906052703 | 22 | 0 | 0.0 | 0.0 | 0.00 | 0.38 | 0.00 | 95 | 1015.2 |
| 20260906051803 | 22 | 0 | 0.0 | 0.0 | 0.00 | 0.38 | 0.00 | 94 | 1015.3 |
| 20260906050903 | 22 | 0 | 0.0 | 0.0 | 0.00 | 0.38 | 0.00 | 94 | 1015.3 |
| 20260906050004 | 22 | 0 | 0.0 | 0.0 | 0.00 | 0.38 | 0.00 | 94 | 1015.4 |
| 20260906045403 | 22 | 0 | 0.0 | 0.0 | 0.00 | 0.38 | 0.38 | 94 | 1015.4 |
| 20260906044503 | 22 | 0 | 0.0 | 0.0 | 0.00 | 0.38 | 0.38 | 92 | 1015.4 |
| 20260906043603 | 22 | 0 | 0.0 | 0.0 | 0.00 | 0.38 | 0.38 | 92 | 1015.5 |
| 20260906042703 | 23 | 0 | 0.0 | 0.0 | 0.00 | 0.38 | 0.38 | 92 | 1015.5 |
| 20260906041803 | 23 | 189 | 1.6 | 4.8 | 0.00 | 0.38 | 0.38 | 91 | 1015.5 |
| 20260906040903 | 23 | 187 | 3.2 | 4.8 | 0.00 | 0.38 | 0.38 | 91 | 1015.7 |
| 20260906040003 | 23 | 188 | 3.2 | 6.4 | 0.00 | 0.38 | 0.38 | 91 | 1015.7 |
| 20260906035403 | 23 | 187 | 3.2 | 6.4 | 0.00 | 0.38 | 0.38 | 91 | 1015.7 |
| 20260906034503 | 23 | 186 | 4.8 | 9.7 | 0.00 | 0.38 | 0.38 | 92 | 1015.8 |
| 20260906033603 | 23 | 189 | 6.4 | 16.1 | 0.00 | 0.38 | 0.38 | 93 | 1015.8 |
| 20260906032703 | 23 | 190 | 6.4 | 8.0 | 0.00 | 0.38 | 0.38 | 94 | 1015.8 |
| 20260906031803 | 23 | 188 | 4.8 | 11.3 | 0.00 | 0.38 | 0.38 | 95 | 1015.7 |
| 20260906030903 | 23 | 180 | 1.6 | 6.4 | 0.00 | 0.38 | 0.38 | 95 | 1015.8 |
| 20260906030003 | 23 | 188 | 4.8 | 9.7 | 0.00 | 0.38 | 0.38 | 95 | 1015.8 |
| 20260906025403 | 23 | 181 | 3.2 | 8.0 | 0.00 | 0.38 | 0.38 | 96 | 1015.8 |
| 20260906024503 | 23 | 136 | 1.6 | 4.8 | 0.00 | 0.38 | 0.38 | 97 | 1015.7 |
| 20260906023603 | 23 | 142 | 0.0 | 4.8 | 0.03 | 0.38 | 0.38 | 97 | 1015.8 |
| 20260906022703 | 23 | 96 | 0.0 | 1.6 | 0.05 | 0.38 | 0.38 | 97 | 1015.5 |
| 20260906021803 | 23 | 0 | 0.0 | 0.0 | 0.05 | 0.38 | 0.38 | 97 | 1015.2 |
| 20260906020903 | 23 | 0 | 0.0 | 0.0 | 0.05 | 0.38 | 0.38 | 96 | 1015.2 |
| 20260906020003 | 23 | 149 | 1.6 | 9.7 | 0.05 | 0.38 | 0.38 | 96 | 1015.2 |
| 20260906015403 | 23 | 109 | 1.6 | 9.7 | 0.05 | 0.38 | 0.38 | 96 | 1015.2 |
| 20260906014503 | 23 | 89 | 1.6 | 4.8 | 0.05 | 0.38 | 0.38 | 96 | 1015.1 |
| 20260906013603 | 23 | 11 | 3.2 | 16.1 | 0.36 | 0.36 | 0.36 | 95 | 1015.3 |
| 20260906012703 | 23 | 347 | 0.0 | 8.0 | 0.33 | 0.33 | 0.33 | 95 | 1015.1 |
| 20260906011803 | 23 | 0 | 0.0 | 0.0 | 0.33 | 0.33 | 0.33 | 94 | 1014.7 |
| 20260906010903 | 24 | 315 | 0.0 | 3.2 | 0.33 | 0.33 | 0.33 | 91 | 1014.2 |
| 20260906010003 | 25 | 341 | 1.6 | 8.0 | 0.33 | 0.33 | 0.33 | 89 | 1014.2 |
| 20260906005403 | 25 | 349 | 3.2 | 11.3 | 0.33 | 0.33 | 0.33 | 85 | 1014.3 |
| 20260906004503 | 27 | 22 | 3.2 | 16.1 | 0.33 | 0.33 | 0.33 | 82 | 1013.9 |
| 20260906003603 | 29 | 10 | 4.8 | 17.7 | 0.00 | 0.00 | 0.00 | 79 | 1014.7 |
| 20260906002703 | 30 | 317 | 0.0 | 4.8 | 0.00 | 0.00 | 0.00 | 75 | 1013.5 |
| 20260906001803 | 30 | 0 | 0.0 | 0.0 | 0.00 | 0.00 | 0.00 | 75 | 1013.7 |
| 20260906000903 | 30 | 0 | 0.0 | 0.0 | 0.00 | 0.00 | 0.00 | 74 | 1013.7 |
| 20260906000003 | 30 | 0 | 0.0 | 0.0 | 0.00 | 0.00 | 0.00 | 74 | 1014.1 |
| 20260905235403 | 30 | 0 | 0.0 | 0.0 | 0.00 | 0.00 | 0.00 | 73 | 1014.2 |
| 20260905234503 | 31 | 0 | 0.0 | 0.0 | 0.00 | 0.00 | 0.00 | 71 | 1014.2 |
| 20260905233603 | 31 | 0 | 0.0 | 0.0 | 0.00 | 0.00 | 0.00 | 72 | 1014.2 |
| 20260905232703 | 31 | 0 | 0.0 | 0.0 | 0.00 | 0.00 | 0.00 | 70 | 1014.0 |
| 20260905231803 | 32 | 0 | 0.0 | 0.0 | 0.00 | 0.00 | 0.00 | 70 | 1014.0 |
| 20260905230903 | 32 | 0 | 0.0 | 0.0 | 0.00 | 0.00 | 0.00 | 68 | 1014.0 |
| 20260905230003 | 32 | 0 | 0.0 | 0.0 | 0.00 | 0.00 | 0.00 | 66 | 1013.9 |
| 20260905225403 | 32 | 0 | 0.0 | 0.0 | 0.00 | 0.00 | 0.00 | 66 | 1013.9 |
| 20260905224503 | 33 | 0 | 0.0 | 0.0 | 0.00 | 0.00 | 0.00 | 64 | 1013.7 |
| 20260905223603 | 33 | 0 | 0.0 | 0.0 | 0.00 | 0.00 | 0.00 | 62 | 1013.7 |
| 20260905222703 | 34 | 0 | 0.0 | 0.0 | 0.00 | 0.00 | 0.00 | 62 | 1013.7 |
| 20260905221803 | 34 | 356 | 0.0 | 1.6 | 0.00 | 0.00 | 0.00 | 60 | 1013.6 |
| 20260905220903 | 35 | 5 | 0.0 | 3.2 | 0.00 | 0.00 | 0.00 | 58 | 1013.8 |
| 20260905220003 | 35 | 353 | 1.6 | 8.0 | 0.00 | 0.00 | 0.00 | 58 | 1013.8 |
| 20260905215403 | 35 | 349 | 1.6 | 6.4 | 0.00 | 0.00 | 0.00 | 57 | 1013.9 |
| 20260905214503 | 36 | 344 | 1.6 | 6.4 | 0.00 | 0.00 | 0.00 | 54 | 1013.8 |
| 20260905213604 | 36 | 33 | 0.0 | 6.4 | 0.00 | 0.00 | 0.00 | 54 | 1013.9 |
| 20260905212703 | 36 | 351 | 1.6 | 6.4 | 0.00 | 0.00 | 0.00 | 54 | 1014.0 |
| 20260905211803 | 36 | 8 | 0.0 | 3.2 | 0.00 | 0.00 | 0.00 | 56 | 1014.1 |
| 20260905210903 | 36 | 349 | 1.6 | 4.8 | 0.00 | 0.00 | 0.00 | 54 | 1014.2 |
| 20260905210004 | 35 | 28 | 1.6 | 11.3 | 0.00 | 0.00 | 0.00 | 56 | 1014.1 |
| 20260905205403 | 35 | 23 | 3.2 | 11.3 | 0.00 | 0.00 | 0.00 | 57 | 1014.2 |
| 20260905204503 | 36 | 39 | 1.6 | 8.0 | 0.00 | 0.00 | 0.00 | 53 | 1014.4 |
| 20260905203603 | 36 | 53 | 1.6 | 6.4 | 0.00 | 0.00 | 0.00 | 53 | 1014.5 |
| 20260905202703 | 36 | 27 | 1.6 | 6.4 | 0.00 | 0.00 | 0.00 | 54 | 1014.6 |
| 20260905201803 | 36 | 12 | 1.6 | 12.9 | 0.00 | 0.00 | 0.00 | 54 | 1014.7 |
| 20260905200903 | 36 | 39 | 0.0 | 8.0 | 0.00 | 0.00 | 0.00 | 55 | 1014.8 |
| 20260905200003 | 36 | 5 | 1.6 | 8.0 | 0.00 | 0.00 | 0.00 | 56 | 1014.9 |
| 20260905195403 | 36 | 16 | 1.6 | 8.0 | 0.00 | 0.00 | 0.00 | 54 | 1014.9 |
| 20260905194503 | 36 | 351 | 1.6 | 6.4 | 0.00 | 0.00 | 0.00 | 58 | 1015.0 |
| 20260905193603 | 36 | 262 | 3.2 | 11.3 | 0.00 | 0.00 | 0.00 | 54 | 1015.2 |
| 20260905192703 | 35 | 222 | 1.6 | 8.0 | 0.00 | 0.00 | 0.00 | 56 | 1015.3 |
| 20260905191803 | 35 | 35 | 3.2 | 6.4 | 0.00 | 0.00 | 0.00 | 55 | 1015.4 |
| 20260905190903 | 35 | 103 | 3.2 | 8.0 | 0.00 | 0.00 | 0.00 | 57 | 1015.5 |
| 20260905190003 | 35 | 2 | 1.6 | 8.0 | 0.00 | 0.00 | 0.00 | 56 | 1015.7 |
| 20260905185403 | 35 | 256 | 0.0 | 3.2 | 0.00 | 0.00 | 0.00 | 58 | 1015.8 |
| 20260905184503 | 36 | 344 | 1.6 | 4.8 | 0.00 | 0.00 | 0.00 | 57 | 1015.8 |
| 20260905183603 | 35 | 337 | 1.6 | 6.4 | 0.00 | 0.00 | 0.00 | 57 | 1015.9 |
| 20260905182704 | 35 | 32 | 1.6 | 4.8 | 0.00 | 0.00 | 0.00 | 60 | 1016.3 |
| 20260905181803 | 35 | 38 | 3.2 | 9.7 | 0.00 | 0.00 | 0.00 | 60 | 1016.4 |
| 20260905180903 | 35 | 323 | 1.6 | 4.8 | 0.00 | 0.00 | 0.00 | 60 | 1016.5 |
| 20260905180003 | 35 | 276 | 1.6 | 4.8 | 0.00 | 0.00 | 0.00 | 58 | 1016.6 |
| 20260905175404 | 35 | 90 | 1.6 | 9.7 | 0.00 | 0.00 | 0.00 | 59 | 1016.5 |
| 20260905174503 | 35 | 209 | 1.6 | 6.4 | 0.00 | 0.00 | 0.00 | 63 | 1016.6 |
| 20260905173603 | 35 | 151 | 1.6 | 6.4 | 0.00 | 0.00 | 0.00 | 61 | 1016.7 |
| 20260905172703 | 34 | 39 | 1.6 | 6.4 | 0.00 | 0.00 | 0.00 | 59 | 1016.8 |
| 20260905171803 | 34 | 25 | 1.6 | 8.0 | 0.00 | 0.00 | 0.00 | 59 | 1016.9 |
| 20260905170903 | 34 | 42 | 1.6 | 6.4 | 0.00 | 0.00 | 0.00 | 63 | 1017.1 |
| 20260905170003 | 34 | 57 | 1.6 | 8.0 | 0.00 | 0.00 | 0.00 | 63 | 1017.3 |
| 20260905165403 | 34 | 89 | 1.6 | 8.0 | 0.00 | 0.00 | 0.00 | 61 | 1017.2 |
| 20260905164503 | 34 | 154 | 3.2 | 9.7 | 0.00 | 0.00 | 0.00 | 62 | 1017.1 |
| 20260905163603 | 34 | 146 | 3.2 | 6.4 | 0.00 | 0.00 | 0.00 | 64 | 1017.3 |
| 20260905162703 | 33 | 120 | 3.2 | 11.3 | 0.00 | 0.00 | 0.00 | 64 | 1017.4 |
| 20260905161803 | 33 | 79 | 3.2 | 11.3 | 0.00 | 0.00 | 0.00 | 67 | 1017.5 |
| 20260905160903 | 33 | 87 | 1.6 | 6.4 | 0.00 | 0.00 | 0.00 | 65 | 1017.5 |
| 20260905160003 | 33 | 27 | 3.2 | 14.5 | 0.00 | 0.00 | 0.00 | 67 | 1017.6 |
| 20260905155403 | 33 | 89 | 1.6 | 14.5 | 0.00 | 0.00 | 0.00 | 66 | 1017.6 |
| 20260905154503 | 33 | 103 | 3.2 | 12.9 | 0.00 | 0.00 | 0.00 | 66 | 1017.5 |
| 20260905153603 | 32 | 61 | 1.6 | 11.3 | 0.00 | 0.00 | 0.00 | 68 | 1017.7 |
| 20260905152703 | 32 | 40 | 1.6 | 8.0 | 0.00 | 0.00 | 0.00 | 74 | 1017.7 |
| 20260905151803 | 32 | 10 | 3.2 | 12.9 | 0.00 | 0.00 | 0.00 | 71 | 1017.8 |
| 20260905150903 | 32 | 28 | 3.2 | 12.9 | 0.00 | 0.00 | 0.00 | 72 | 1017.8 |
| 20260905150003 | 32 | 45 | 4.8 | 12.9 | 0.00 | 0.00 | 0.00 | 71 | 1017.8 |
| 20260905145403 | 31 | 8 | 4.8 | 12.9 | 0.00 | 0.00 | 0.00 | 71 | 1017.7 |
| 20260905144503 | 31 | 359 | 3.2 | 6.4 | 0.00 | 0.00 | 0.00 | 69 | 1017.6 |
| 20260905143603 | 31 | 6 | 3.2 | 12.9 | 0.00 | 0.00 | 0.00 | 74 | 1017.6 |
| 20260905142703 | 31 | 9 | 4.8 | 12.9 | 0.00 | 0.00 | 0.00 | 73 | 1017.6 |
| 20260905141803 | 30 | 13 | 3.2 | 9.7 | 0.00 | 0.00 | 0.00 | 77 | 1017.6 |
| 20260905140903 | 30 | 20 | 1.6 | 6.4 | 0.00 | 0.00 | 0.00 | 78 | 1017.6 |
| 20260905140004 | 30 | 17 | 1.6 | 6.4 | 0.00 | 0.00 | 0.00 | 80 | 1017.7 |
| 20260905135403 | 29 | 0 | 0.0 | 0.0 | 0.00 | 0.00 | 0.00 | 79 | 1017.6 |
| 20260905134503 | 28 | 0 | 0.0 | 0.0 | 0.00 | 0.00 | 0.00 | 83 | 1017.6 |
| 20260905133603 | 27 | 0 | 0.0 | 0.0 | 0.00 | 0.00 | 0.00 | 88 | 1017.8 |
| 20260905132703 | 26 | 0 | 0.0 | 0.0 | 0.00 | 0.00 | 0.00 | 92 | 1017.9 |
| 20260905131803 | 25 | 0 | 0.0 | 0.0 | 0.00 | 0.00 | 0.00 | 94 | 1017.9 |
| 20260905130903 | 25 | 0 | 0.0 | 0.0 | 0.00 | 0.00 | 0.00 | 95 | 1017.9 |
| 20260905130003 | 24 | 0 | 0.0 | 0.0 | 0.00 | 0.00 | 0.00 | 96 | 1017.9 |
| 20260905125403 | 24 | 0 | 0.0 | 0.0 | 0.00 | 0.00 | 0.00 | 96 | 1018.0 |
| 20260905124503 | 23 | 0 | 0.0 | 0.0 | 0.00 | 0.00 | 0.00 | 96 | 1017.9 |
| 20260905123603 | 23 | 0 | 0.0 | 0.0 | 0.00 | 0.00 | 0.00 | 96 | 1017.9 |
| 20260905122703 | 23 | 0 | 0.0 | 0.0 | 0.00 | 0.00 | 0.00 | 96 | 1017.8 |
| 20260905121803 | 23 | 0 | 0.0 | 0.0 | 0.00 | 0.00 | 0.00 | 96 | 1017.8 |
| 20260905120903 | 23 | 0 | 0.0 | 0.0 | 0.00 | 0.00 | 0.00 | 96 | 1017.7 |
| 20260905120003 | 23 | 0 | 0.0 | 0.0 | 0.00 | 0.00 | 0.00 | 96 | 1017.7 |
| 20260905115403 | 23 | 0 | 0.0 | 0.0 | 0.00 | 0.00 | 0.00 | 96 | 1017.7 |
| 20260905114503 | 23 | 0 | 0.0 | 0.0 | 0.00 | 0.00 | 0.00 | 96 | 1017.4 |
| 20260905113603 | 23 | 0 | 0.0 | 0.0 | 0.00 | 0.00 | 0.00 | 96 | 1017.3 |